KGNV/GNV METAR and TAF weather

Enter ICAO airport designator
Station Type Date Time Source
KGNV METAR 2022/12/05 15:53 UTC NOAA

KGNV 051553Z 00000KT 8SM OVC006 19/17 A3017 RMK AO2 CIG 005V009 SLP215 T01940172


Station Type Date Time Source
KGNV Decoded METAR 2022/12/05 15:53 UTC NOAA

GAINESVILLE REGIONAL AIRPORT , FL, United States (KGNV) 29-42N 082-17W 45M
Dec 05, 2022 - 10:53 AM EST / 2022.12.05 1553 UTC
Wind: Calm:0
Visibility: 8 mile(s):0
Sky conditions: overcast
Temperature: 66.9 F (19.4 C)
Dew Point: 63.0 F (17.2 C)
Relative Humidity: 87%
Pressure (altimeter): 30.17 in. Hg (1021 hPa)
ob: KGNV 051553Z 00000KT 8SM OVC006 19/17 A3017 RMK AO2 CIG 005V009 SLP215 T01940172
cycle: 16

Station Type Date Time Source
KGNV TAF 2022/12/05 15:28 UTC NOAA

TAF
AMD KGNV 051526Z 0515/0612 VRB02KT 4SM BR BKN004 BKN015
FM051600 VRB02KT P6SM FEW002 SCT015 BKN250
FM051800 VRB04KT P6SM SCT030 BKN250
FM060400 00000KT 3SM BR BKN250
FM060700 00000KT 1/2SM FG OVC002

Example: see airport list